臺北終端管制區 - 松西席

SPECI RCSS 140334Z 29009KT 9999 FEW020 BKN045 34/26 Q1007 NOSIG RMK 29010KT/R10 A2975=

站台狀態:Offline
最後更新:2022-08-14 11:30:02